Time;durP1;ratioP1;P1;durP2;ratioP2;P2;SDS_P1;SDS_P2;PMS_P1;PMS_P2;Temp;Humidity;BMP_temperature;BMP_pressure;BME280_temperature;BME280_humidity;BME280_pressure;Samples;Min_cycle;Max_cycle;Signal;HPM_P1;HPM_P2
2022/05/21 00:01:49;;;;;;;10.13;4.47;;;;;;;;;;4918760;29;20051;-67
2022/05/21 00:04:16;;;;;;;13.57;5.50;;;;;;;;;;4917822;29;20145;-67
2022/05/21 00:06:43;;;;;;;13.57;5.57;;;;;;;;;;4935205;29;20051;-67
2022/05/21 00:09:11;;;;;;;12.95;5.18;;;;;;;;;;4940299;29;20043;-67
2022/05/21 00:11:38;;;;;;;12.05;5.45;;;;;;;;;;4941148;29;20047;-67
2022/05/21 00:14:05;;;;;;;14.05;6.22;;;;;;;;;;4922014;29;21857;-67
2022/05/21 00:16:34;;;;;;;18.67;6.95;;;;;;;;;;4941520;29;20059;-67
2022/05/21 00:19:01;;;;;;;17.90;6.45;;;;;;;;;;4931351;29;20043;-67
2022/05/21 00:21:28;;;;;;;17.63;6.72;;;;;;;;;;4936235;28;20059;-67
2022/05/21 00:23:56;;;;;;;19.33;7.07;;;;;;;;;;4923111;29;20257;-67
2022/05/21 00:26:25;;;;;;;18.17;7.07;;;;;;;;;;4934625;28;20115;-67
2022/05/21 00:28:52;;;;;;;19.33;8.70;;;;;;;;;;4938431;29;20138;-67
2022/05/21 00:31:20;;;;;;;19.05;8.98;;;;;;;;;;4918153;28;20123;-67
2022/05/21 00:33:49;;;;;;;23.67;9.50;;;;;;;;;;4942034;29;20333;-67
2022/05/21 00:36:16;;;;;;;26.08;10.70;;;;;;;;;;4943660;29;20051;-67
2022/05/21 00:38:44;;;;;;;29.75;10.40;;;;;;;;;;4941523;29;20417;-67
2022/05/21 00:41:12;;;;;;;19.48;9.52;;;;;;;;;;4932835;29;20060;-67
2022/05/21 00:43:41;;;;;;;27.80;9.65;;;;;;;;;;4921178;29;20570;-68
2022/05/21 00:46:10;;;;;;;25.23;9.13;;;;;;;;;;4944258;28;20059;-68
2022/05/21 00:48:39;;;;;;;22.65;9.63;;;;;;;;;;4917418;29;20055;-68
2022/05/21 00:51:10;;;;;;;24.48;8.77;;;;;;;;;;4943391;29;20165;-68
2022/05/21 00:53:37;;;;;;;26.38;9.07;;;;;;;;;;4920918;29;20055;-68
2022/05/21 00:56:05;;;;;;;29.55;8.75;;;;;;;;;;4930338;29;20072;-68
2022/05/21 01:01:18;;;;;;;26.48;7.90;;;;;;;;;;4938636;29;20054;-68
2022/05/21 01:03:45;;;;;;;33.08;9.55;;;;;;;;;;4946596;29;20055;-68
2022/05/21 01:06:14;;;;;;;25.63;8.38;;;;;;;;;;4945667;29;20051;-68
2022/05/21 01:08:41;;;;;;;30.27;9.02;;;;;;;;;;4945532;29;20051;-68
2022/05/21 01:11:11;;;;;;;31.70;10.98;;;;;;;;;;4945447;29;20055;-66
2022/05/21 01:13:40;;;;;;;28.13;10.77;;;;;;;;;;4943191;29;20075;-66
2022/05/21 01:16:07;;;;;;;34.65;10.85;;;;;;;;;;4947307;29;20059;-65
2022/05/21 01:18:34;;;;;;;36.67;11.15;;;;;;;;;;4948734;29;20047;-65
2022/05/21 01:21:02;;;;;;;34.08;10.68;;;;;;;;;;4941279;29;20044;-65
2022/05/21 01:23:30;;;;;;;38.67;9.85;;;;;;;;;;4943293;29;20066;-65
2022/05/21 01:25:59;;;;;;;41.28;11.48;;;;;;;;;;4940482;29;20762;-65
2022/05/21 01:28:27;;;;;;;46.20;12.65;;;;;;;;;;4923065;29;20448;-63
2022/05/21 01:30:55;;;;;;;40.50;13.50;;;;;;;;;;4946132;28;20055;-64
2022/05/21 01:33:24;;;;;;;41.65;13.23;;;;;;;;;;4938797;29;20055;-64
2022/05/21 01:35:52;;;;;;;40.97;14.05;;;;;;;;;;4941553;29;20056;-65
2022/05/21 01:38:20;;;;;;;39.10;12.40;;;;;;;;;;4925448;29;20122;-66
2022/05/21 01:40:49;;;;;;;50.35;13.38;;;;;;;;;;4946741;28;20092;-66
2022/05/21 01:46:01;;;;;;;44.10;13.00;;;;;;;;;;4941524;29;20046;-66
2022/05/21 01:48:29;;;;;;;56.38;13.23;;;;;;;;;;4942875;29;20051;-67
2022/05/21 01:50:57;;;;;;;43.83;12.30;;;;;;;;;;4947539;29;20059;-67
2022/05/21 01:53:25;;;;;;;51.90;14.70;;;;;;;;;;4946026;29;20070;-67
2022/05/21 01:55:54;;;;;;;39.80;11.20;;;;;;;;;;4934540;29;20051;-67
2022/05/21 01:58:21;;;;;;;39.15;10.43;;;;;;;;;;4944618;29;20100;-67
2022/05/21 02:00:49;;;;;;;49.03;10.77;;;;;;;;;;4922656;29;20070;-67
2022/05/21 02:03:16;;;;;;;47.03;9.20;;;;;;;;;;4944716;29;20074;-67
2022/05/21 02:05:45;;;;;;;50.95;8.77;;;;;;;;;;4943020;29;20064;-67
2022/05/21 02:08:12;;;;;;;42.20;7.53;;;;;;;;;;4944034;29;20091;-67
2022/05/21 02:10:42;;;;;;;44.22;6.95;;;;;;;;;;4943870;29;20051;-67
2022/05/21 02:13:13;;;;;;;34.58;6.07;;;;;;;;;;4945882;29;20110;-67
2022/05/21 02:15:40;;;;;;;33.60;6.38;;;;;;;;;;4924387;29;20482;-67
2022/05/21 02:18:08;;;;;;;36.60;6.45;;;;;;;;;;4940116;29;20055;-67
2022/05/21 02:20:35;;;;;;;37.97;6.07;;;;;;;;;;4930288;29;20059;-67
2022/05/21 02:23:02;;;;;;;35.30;5.15;;;;;;;;;;4940281;28;20119;-67
2022/05/21 02:25:29;;;;;;;40.65;7.30;;;;;;;;;;4939451;29;20047;-67
2022/05/21 02:27:56;;;;;;;35.40;5.28;;;;;;;;;;4941615;29;20605;-67
2022/05/21 02:30:25;;;;;;;29.77;5.78;;;;;;;;;;4942222;29;20114;-67
2022/05/21 02:32:52;;;;;;;31.48;6.03;;;;;;;;;;4941525;29;20059;-67
2022/05/21 02:35:20;;;;;;;37.35;5.97;;;;;;;;;;4939996;29;20212;-67
2022/05/21 02:40:32;;;;;;;36.85;7.10;;;;;;;;;;4943690;28;20517;-67
2022/05/21 02:42:59;;;;;;;38.40;6.43;;;;;;;;;;4942913;28;20062;-67
2022/05/21 02:45:28;;;;;;;31.17;5.97;;;;;;;;;;4934181;29;20418;-67
2022/05/21 02:47:56;;;;;;;33.70;5.53;;;;;;;;;;4943190;29;20051;-67
2022/05/21 02:50:24;;;;;;;32.60;6.25;;;;;;;;;;4946097;29;20404;-67
2022/05/21 02:52:52;;;;;;;26.77;4.78;;;;;;;;;;4944741;29;20055;-67
2022/05/21 02:55:19;;;;;;;41.38;6.30;;;;;;;;;;4941889;29;20154;-67
2022/05/21 02:57:47;;;;;;;39.65;6.07;;;;;;;;;;4941746;29;20059;-67
2022/05/21 03:00:16;;;;;;;37.08;5.32;;;;;;;;;;4937479;29;20107;-67
2022/05/21 03:02:44;;;;;;;26.48;5.18;;;;;;;;;;4923274;29;20059;-67
2022/05/21 03:05:11;;;;;;;32.88;6.90;;;;;;;;;;4921870;28;20047;-67
2022/05/21 03:07:39;;;;;;;27.67;5.38;;;;;;;;;;4945135;29;20043;-67
2022/05/21 03:10:21;;;;;;;38.08;5.80;;;;;;;;;;4938207;29;20059;-67
2022/05/21 03:12:49;;;;;;;36.42;6.45;;;;;;;;;;4939582;28;20081;-67
2022/05/21 03:15:16;;;;;;;28.92;5.40;;;;;;;;;;4943577;29;20146;-67
2022/05/21 03:17:46;;;;;;;31.45;5.78;;;;;;;;;;4945073;29;20058;-67
2022/05/21 03:20:14;;;;;;;25.77;4.85;;;;;;;;;;4940476;29;20483;-67
2022/05/21 03:22:42;;;;;;;20.48;3.85;;;;;;;;;;4939166;29;20063;-67
2022/05/21 03:25:09;;;;;;;31.90;5.00;;;;;;;;;;4943415;29;20493;-67
2022/05/21 03:27:37;;;;;;;30.65;4.78;;;;;;;;;;4924982;29;20830;-67
2022/05/21 03:30:04;;;;;;;26.90;5.03;;;;;;;;;;4946386;29;20043;-67
2022/05/21 03:32:32;;;;;;;21.85;3.92;;;;;;;;;;4924666;29;20063;-67
2022/05/21 03:35:00;;;;;;;26.63;4.82;;;;;;;;;;4919384;29;20388;-67
2022/05/21 03:37:27;;;;;;;30.40;4.15;;;;;;;;;;4942504;29;20063;-67
2022/05/21 03:39:55;;;;;;;31.83;5.57;;;;;;;;;;4920709;29;20055;-67
2022/05/21 03:42:22;;;;;;;32.13;4.45;;;;;;;;;;4940830;29;20055;-67
2022/05/21 03:44:50;;;;;;;19.45;4.22;;;;;;;;;;4937497;29;20050;-67
2022/05/21 03:47:17;;;;;;;17.15;3.60;;;;;;;;;;4939859;29;20065;-67
2022/05/21 03:49:44;;;;;;;24.98;4.38;;;;;;;;;;4925793;29;20054;-67
2022/05/21 03:52:13;;;;;;;22.48;3.97;;;;;;;;;;4939590;29;20051;-67
2022/05/21 03:54:40;;;;;;;30.42;4.30;;;;;;;;;;4940372;29;20576;-67
2022/05/21 03:57:08;;;;;;;21.85;4.05;;;;;;;;;;4937185;29;20204;-67
2022/05/21 03:59:35;;;;;;;22.42;3.97;;;;;;;;;;4917203;29;20078;-67
2022/05/21 04:02:03;;;;;;;29.17;4.32;;;;;;;;;;4939141;28;20800;-67
2022/05/21 04:04:31;;;;;;;27.52;4.35;;;;;;;;;;4936693;29;20051;-67
2022/05/21 04:06:58;;;;;;;24.27;4.40;;;;;;;;;;4934179;29;20063;-67
2022/05/21 04:09:28;;;;;;;29.35;4.53;;;;;;;;;;4939614;28;20211;-67
2022/05/21 04:11:55;;;;;;;18.52;3.60;;;;;;;;;;4934043;29;20421;-67
2022/05/21 04:14:27;;;;;;;22.83;3.53;;;;;;;;;;4939353;29;20107;-67
2022/05/21 04:16:54;;;;;;;21.95;3.90;;;;;;;;;;4937775;29;20051;-67
2022/05/21 04:19:21;;;;;;;25.50;3.28;;;;;;;;;;4921370;29;20051;-67
2022/05/21 04:21:48;;;;;;;20.77;4.18;;;;;;;;;;4938857;29;20055;-67
2022/05/21 04:24:16;;;;;;;24.80;3.45;;;;;;;;;;4940448;28;20047;-67
2022/05/21 04:26:44;;;;;;;28.10;3.70;;;;;;;;;;4945794;29;20086;-67
2022/05/21 04:29:12;;;;;;;22.30;3.60;;;;;;;;;;4946920;29;20055;-67
2022/05/21 04:31:39;;;;;;;20.67;3.80;;;;;;;;;;4943543;29;20055;-67
2022/05/21 04:34:06;;;;;;;22.52;4.30;;;;;;;;;;4942166;29;20054;-67
2022/05/21 04:36:34;;;;;;;27.05;4.40;;;;;;;;;;4941115;28;20146;-67
2022/05/21 04:39:01;;;;;;;21.23;3.45;;;;;;;;;;4921836;29;20056;-67
2022/05/21 04:41:29;;;;;;;18.95;3.85;;;;;;;;;;4921348;29;20071;-67
2022/05/21 04:43:58;;;;;;;22.13;3.65;;;;;;;;;;4942170;28;20062;-67
2022/05/21 04:46:25;;;;;;;17.30;3.40;;;;;;;;;;4942083;29;20110;-67
2022/05/21 04:48:53;;;;;;;27.20;3.97;;;;;;;;;;4942059;28;20050;-68
2022/05/21 04:51:20;;;;;;;22.85;4.20;;;;;;;;;;4943311;29;20197;-67
2022/05/21 04:53:47;;;;;;;23.00;4.30;;;;;;;;;;4925107;29;20063;-67
2022/05/21 04:56:15;;;;;;;22.73;4.63;;;;;;;;;;4943713;29;20074;-68
2022/05/21 04:58:42;;;;;;;20.55;3.60;;;;;;;;;;4937380;29;20115;-68
2022/05/21 05:01:11;;;;;;;22.60;4.13;;;;;;;;;;4945148;29;20110;-68
2022/05/21 05:03:38;;;;;;;22.52;4.05;;;;;;;;;;4929799;29;20077;-68
2022/05/21 05:06:08;;;;;;;28.90;3.78;;;;;;;;;;4940898;29;20057;-68
2022/05/21 05:08:37;;;;;;;22.13;4.00;;;;;;;;;;4944369;28;20043;-68
2022/05/21 05:11:04;;;;;;;24.20;3.45;;;;;;;;;;4943981;29;20168;-68
2022/05/21 05:13:31;;;;;;;20.70;3.60;;;;;;;;;;4926518;29;20106;-68
2022/05/21 05:15:58;;;;;;;24.17;3.78;;;;;;;;;;4928626;29;20566;-68
2022/05/21 05:18:30;;;;;;;24.40;3.95;;;;;;;;;;4926012;29;20437;-68
2022/05/21 05:20:57;;;;;;;25.77;3.78;;;;;;;;;;4927283;29;20063;-68
2022/05/21 05:23:25;;;;;;;23.23;4.88;;;;;;;;;;4942144;29;20074;-68
2022/05/21 05:25:53;;;;;;;19.10;3.30;;;;;;;;;;4924810;29;20532;-68
2022/05/21 05:28:21;;;;;;;23.75;4.18;;;;;;;;;;4924702;29;20061;-68
2022/05/21 05:30:49;;;;;;;24.30;4.22;;;;;;;;;;4943797;29;20126;-67
2022/05/21 05:33:16;;;;;;;22.23;4.55;;;;;;;;;;4944440;28;20134;-67
2022/05/21 05:35:45;;;;;;;27.45;4.03;;;;;;;;;;4919672;28;20055;-67
2022/05/21 05:38:13;;;;;;;20.98;3.72;;;;;;;;;;4919567;29;20462;-67
2022/05/21 05:40:41;;;;;;;24.42;4.07;;;;;;;;;;4941620;29;20055;-67
2022/05/21 05:43:08;;;;;;;16.83;3.55;;;;;;;;;;4932801;28;20055;-67
2022/05/21 05:45:36;;;;;;;21.77;3.70;;;;;;;;;;4929883;28;20056;-67
2022/05/21 05:48:03;;;;;;;23.88;3.72;;;;;;;;;;4930892;28;20051;-67
2022/05/21 05:50:31;;;;;;;28.20;4.43;;;;;;;;;;4936921;28;20493;-67
2022/05/21 05:53:03;;;;;;;28.92;4.82;;;;;;;;;;4920144;29;20092;-67
2022/05/21 05:55:43;;;;;;;22.95;4.60;;;;;;;;;;4927120;28;20146;-67
2022/05/21 06:00:55;;;;;;;20.55;4.20;;;;;;;;;;4915002;28;20058;-67
2022/05/21 06:03:25;;;;;;;28.20;4.15;;;;;;;;;;4933624;28;20078;-67
2022/05/21 06:05:53;;;;;;;25.08;3.78;;;;;;;;;;4930287;28;20055;-67
2022/05/21 06:08:21;;;;;;;27.92;4.55;;;;;;;;;;4930401;28;20055;-67
2022/05/21 06:10:49;;;;;;;21.55;3.85;;;;;;;;;;4932840;28;20463;-67
2022/05/21 06:13:16;;;;;;;21.23;3.47;;;;;;;;;;4933142;28;20118;-67
2022/05/21 06:15:44;;;;;;;20.52;3.50;;;;;;;;;;4933965;28;20051;-67
2022/05/21 06:18:12;;;;;;;20.20;3.45;;;;;;;;;;4914182;29;20059;-67
2022/05/21 06:20:42;;;;;;;16.50;3.20;;;;;;;;;;4930849;28;20491;-67
2022/05/21 06:23:09;;;;;;;21.15;3.50;;;;;;;;;;4930262;28;20051;-67
2022/05/21 06:25:38;;;;;;;30.80;4.90;;;;;;;;;;4931714;28;20569;-67
2022/05/21 06:28:06;;;;;;;22.20;4.13;;;;;;;;;;4915956;28;20113;-67
2022/05/21 06:30:34;;;;;;;22.02;3.83;;;;;;;;;;4916431;29;20462;-67
2022/05/21 06:33:12;;;;;;;20.05;3.33;;;;;;;;;;4932146;28;20083;-67
2022/05/21 06:35:39;;;;;;;23.88;4.32;;;;;;;;;;4930717;29;20126;-67
2022/05/21 06:38:06;;;;;;;22.65;4.07;;;;;;;;;;4932122;28;20458;-67
2022/05/21 06:40:33;;;;;;;16.73;3.70;;;;;;;;;;4931079;28;20047;-67
2022/05/21 06:43:02;;;;;;;26.52;3.72;;;;;;;;;;4928741;28;20052;-67
2022/05/21 06:45:29;;;;;;;22.50;4.20;;;;;;;;;;4914354;28;20055;-67
2022/05/21 06:48:00;;;;;;;24.85;4.18;;;;;;;;;;4931559;28;20052;-67
2022/05/21 06:50:28;;;;;;;26.63;4.10;;;;;;;;;;4933338;28;20091;-67
2022/05/21 06:52:56;;;;;;;20.60;3.63;;;;;;;;;;4931232;28;20099;-67
2022/05/21 06:55:23;;;;;;;26.27;3.97;;;;;;;;;;4933074;29;20497;-67
2022/05/21 06:57:51;;;;;;;20.48;3.33;;;;;;;;;;4914473;29;20058;-67
2022/05/21 07:00:21;;;;;;;21.42;3.60;;;;;;;;;;4913975;28;20392;-67
2022/05/21 07:02:49;;;;;;;19.73;3.78;;;;;;;;;;4934296;28;20051;-67
2022/05/21 07:08:02;;;;;;;18.10;3.35;;;;;;;;;;4932621;28;20485;-67
2022/05/21 07:10:30;;;;;;;23.48;3.58;;;;;;;;;;4932267;28;20074;-67
2022/05/21 07:12:57;;;;;;;17.92;3.75;;;;;;;;;;4912211;29;20059;-67
2022/05/21 07:15:26;;;;;;;23.70;3.60;;;;;;;;;;4931513;28;20052;-67
2022/05/21 07:17:59;;;;;;;23.42;3.78;;;;;;;;;;4932424;28;20130;-67
2022/05/21 07:20:26;;;;;;;23.85;3.90;;;;;;;;;;4931148;28;20050;-67
2022/05/21 07:22:54;;;;;;;22.65;3.50;;;;;;;;;;4929703;28;20051;-67
2022/05/21 07:25:23;;;;;;;22.48;3.88;;;;;;;;;;4941824;29;20463;-67
2022/05/21 07:27:50;;;;;;;24.88;3.50;;;;;;;;;;4928606;29;20063;-67
2022/05/21 07:30:18;;;;;;;23.13;3.58;;;;;;;;;;4942271;29;20051;-67
2022/05/21 07:32:50;;;;;;;25.35;4.25;;;;;;;;;;4942393;29;20530;-67
2022/05/21 07:35:19;;;;;;;26.27;4.13;;;;;;;;;;4945023;29;20651;-67
2022/05/21 07:37:46;;;;;;;23.00;4.53;;;;;;;;;;4945140;29;20063;-67
2022/05/21 07:40:14;;;;;;;23.98;3.50;;;;;;;;;;4943001;29;20047;-67
2022/05/21 07:42:41;;;;;;;22.58;3.78;;;;;;;;;;4945425;29;20542;-67
2022/05/21 07:45:10;;;;;;;25.55;4.25;;;;;;;;;;4944843;29;20059;-67
2022/05/21 07:47:37;;;;;;;19.83;3.45;;;;;;;;;;4925669;29;20906;-67
2022/05/21 07:50:07;;;;;;;23.05;4.00;;;;;;;;;;4944711;29;20063;-67
2022/05/21 07:52:34;;;;;;;20.63;3.65;;;;;;;;;;4945324;29;20141;-67
2022/05/21 07:55:01;;;;;;;17.92;3.78;;;;;;;;;;4942837;29;20540;-67
2022/05/21 07:57:28;;;;;;;22.65;3.95;;;;;;;;;;4944324;29;20059;-67
2022/05/21 07:59:56;;;;;;;21.23;3.88;;;;;;;;;;4942234;29;20094;-67
2022/05/21 08:02:23;;;;;;;20.90;3.72;;;;;;;;;;4925942;29;20055;-67
2022/05/21 08:04:50;;;;;;;21.20;3.72;;;;;;;;;;4928111;29;20067;-68
2022/05/21 08:07:21;;;;;;;16.40;3.05;;;;;;;;;;4944177;29;20136;-68
2022/05/21 08:09:48;;;;;;;21.35;3.70;;;;;;;;;;4926927;29;20059;-68
2022/05/21 08:12:18;;;;;;;24.63;3.78;;;;;;;;;;4944884;29;20054;-68
2022/05/21 08:14:45;;;;;;;22.50;3.72;;;;;;;;;;4927487;29;20125;-68
2022/05/21 08:17:13;;;;;;;26.75;4.07;;;;;;;;;;4945218;28;20059;-67
2022/05/21 08:19:41;;;;;;;22.00;3.80;;;;;;;;;;4945247;29;20138;-68
2022/05/21 08:27:40;;;;;;;26.45;4.22;;;;;;;;;;4943731;29;20054;-68
2022/05/21 08:30:08;;;;;;;22.90;4.00;;;;;;;;;;4943841;28;20069;-68
2022/05/21 08:32:35;;;;;;;20.58;3.92;;;;;;;;;;4944049;29;20058;-68
2022/05/21 08:35:02;;;;;;;21.85;3.60;;;;;;;;;;4928104;29;20849;-67
2022/05/21 08:37:33;;;;;;;26.58;3.85;;;;;;;;;;4927202;29;20071;-68
2022/05/21 08:40:02;;;;;;;18.23;3.63;;;;;;;;;;4944034;29;20063;-68
2022/05/21 08:42:33;;;;;;;21.85;3.58;;;;;;;;;;4943670;29;20137;-68
2022/05/21 08:45:06;;;;;;;14.95;3.28;;;;;;;;;;4923702;29;20083;-68
2022/05/21 08:47:37;;;;;;;22.33;3.55;;;;;;;;;;4943197;29;20062;-68
2022/05/21 08:50:05;;;;;;;15.90;3.42;;;;;;;;;;4940818;29;20138;-68
2022/05/21 08:52:35;;;;;;;19.58;3.67;;;;;;;;;;4943956;29;20102;-68
2022/05/21 08:55:06;;;;;;;16.83;3.50;;;;;;;;;;4942284;29;20047;-68
2022/05/21 08:57:35;;;;;;;22.60;3.55;;;;;;;;;;4923111;29;20111;-68
2022/05/21 09:00:05;;;;;;;16.33;3.75;;;;;;;;;;4942523;29;20106;-68
2022/05/21 09:02:34;;;;;;;23.17;3.90;;;;;;;;;;4924721;29;20051;-68
2022/05/21 09:05:01;;;;;;;24.02;4.03;;;;;;;;;;4942691;29;20673;-68
2022/05/21 09:07:32;;;;;;;19.98;3.78;;;;;;;;;;4942839;29;20047;-68
2022/05/21 09:10:12;;;;;;;23.73;4.25;;;;;;;;;;4942803;28;20043;-68
2022/05/21 09:12:46;;;;;;;19.88;3.67;;;;;;;;;;4947439;28;20142;-68
2022/05/21 09:16:54;;;;;;;18.38;3.50;;;;;;;;;;4945681;29;20046;-68
2022/05/21 09:18:08;;;;;;;22.90;4.18;;;;;;;;;;4946362;29;20055;-68
2022/05/21 09:20:41;;;;;;;24.88;4.00;;;;;;;;;;4947518;29;20043;-68
2022/05/21 09:23:11;;;;;;;22.40;3.58;;;;;;;;;;4930297;29;20060;-68
2022/05/21 09:25:39;;;;;;;21.23;3.92;;;;;;;;;;4944977;29;20102;-68
2022/05/21 09:28:07;;;;;;;18.85;3.78;;;;;;;;;;4950927;29;20047;-68
2022/05/21 09:30:35;;;;;;;19.45;3.80;;;;;;;;;;4951562;29;20050;-68
2022/05/21 09:33:04;;;;;;;13.93;3.20;;;;;;;;;;4951058;29;20066;-68
2022/05/21 09:35:32;;;;;;;21.83;4.35;;;;;;;;;;4950939;29;20114;-68
2022/05/21 09:38:12;;;;;;;17.08;3.95;;;;;;;;;;4951525;29;20126;-68
2022/05/21 09:40:41;;;;;;;17.65;2.95;;;;;;;;;;4951056;29;20482;-68
2022/05/21 09:46:15;;;;;;;17.45;3.20;;;;;;;;;;4951259;29;20167;-68
2022/05/21 09:48:42;;;;;;;17.10;2.97;;;;;;;;;;4949765;28;20550;-68
2022/05/21 09:51:21;;;;;;;20.00;3.50;;;;;;;;;;4933405;29;20073;-68
2022/05/21 09:53:48;;;;;;;20.63;3.92;;;;;;;;;;4951443;28;20133;-68
2022/05/21 09:56:20;;;;;;;15.55;3.20;;;;;;;;;;4950731;29;20055;-68
2022/05/21 09:58:49;;;;;;;14.73;3.20;;;;;;;;;;4951399;29;20051;-67
2022/05/21 10:01:17;;;;;;;20.63;2.95;;;;;;;;;;4946162;29;20059;-68
2022/05/21 10:03:46;;;;;;;22.98;4.22;;;;;;;;;;4950682;29;20055;-68
2022/05/21 10:06:30;;;;;;;18.70;3.40;;;;;;;;;;4950683;29;20067;-68
2022/05/21 10:11:51;;;;;;;14.73;2.70;;;;;;;;;;4950294;29;20065;-68
2022/05/21 10:14:21;;;;;;;20.42;3.40;;;;;;;;;;4946811;29;20063;-68
2022/05/21 10:16:50;;;;;;;12.82;2.72;;;;;;;;;;4946088;29;20047;-68
2022/05/21 10:19:20;;;;;;;17.20;2.78;;;;;;;;;;4933151;29;20055;-68
2022/05/21 10:21:53;;;;;;;15.27;3.25;;;;;;;;;;4949443;28;20109;-68
2022/05/21 10:24:24;;;;;;;18.10;3.17;;;;;;;;;;4950917;29;20083;-68
2022/05/21 10:26:57;;;;;;;14.80;3.00;;;;;;;;;;4950267;29;20177;-68
2022/05/21 10:29:36;;;;;;;11.95;2.50;;;;;;;;;;4948851;29;20390;-68
2022/05/21 10:32:08;;;;;;;11.93;2.53;;;;;;;;;;4950182;29;20513;-68
2022/05/21 10:34:44;;;;;;;13.18;3.20;;;;;;;;;;4950695;29;20409;-68
2022/05/21 10:37:20;;;;;;;12.05;2.70;;;;;;;;;;4949924;28;20051;-68
2022/05/21 10:39:59;;;;;;;16.08;3.28;;;;;;;;;;4949993;29;20490;-68
2022/05/21 10:42:35;;;;;;;12.63;3.38;;;;;;;;;;4931790;29;20089;-68
2022/05/21 10:45:08;;;;;;;17.10;3.40;;;;;;;;;;4948956;29;20078;-68
2022/05/21 10:47:35;;;;;;;;;;;;;;;;;;4932544;29;20047;-68
2022/05/21 10:50:13;;;;;;;17.00;3.80;;;;;;;;;;4949912;29;19926;-68
2022/05/21 10:52:47;;;;;;;10.77;2.70;;;;;;;;;;4950593;29;20054;-68
2022/05/21 10:55:18;;;;;;;12.82;3.00;;;;;;;;;;4947618;29;20055;-68
2022/05/21 10:57:51;;;;;;;15.88;3.03;;;;;;;;;;4948261;29;20043;-68
2022/05/21 11:00:20;;;;;;;12.98;2.58;;;;;;;;;;4949533;28;20055;-68
2022/05/21 11:03:06;;;;;;;17.35;3.53;;;;;;;;;;4947884;29;20466;-68
2022/05/21 11:05:40;;;;;;;15.95;3.38;;;;;;;;;;4948635;29;20043;-68
2022/05/21 11:08:11;;;;;;;12.15;2.78;;;;;;;;;;4929286;29;20055;-68
2022/05/21 11:10:42;;;;;;;12.85;2.45;;;;;;;;;;4930733;29;20418;-68
2022/05/21 11:13:13;;;;;;;15.35;3.03;;;;;;;;;;4929901;29;20067;-68
2022/05/21 11:15:44;;;;;;;12.75;2.40;;;;;;;;;;4929356;29;20498;-68
2022/05/21 11:18:15;;;;;;;14.35;2.40;;;;;;;;;;4928837;29;20407;-68
2022/05/21 11:20:46;;;;;;;10.73;2.20;;;;;;;;;;4932468;29;20055;-68
2022/05/21 11:23:17;;;;;;;15.00;2.33;;;;;;;;;;4929550;29;20079;-68
2022/05/21 11:25:47;;;;;;;14.65;3.47;;;;;;;;;;4927022;29;20047;-68
2022/05/21 11:28:28;;;;;;;14.02;2.65;;;;;;;;;;4928537;29;20111;-68
2022/05/21 11:30:56;;;;;;;18.65;3.42;;;;;;;;;;4930762;29;20111;-68
2022/05/21 11:38:58;;;;;;;13.15;2.80;;;;;;;;;;4927925;29;20598;-68
2022/05/21 11:41:45;;;;;;;12.23;2.67;;;;;;;;;;4931092;29;20367;-68
2022/05/21 11:47:26;;;;;;;13.13;2.83;;;;;;;;;;4926502;29;20098;-68
2022/05/21 11:49:54;;;;;;;13.23;2.58;;;;;;;;;;4928958;29;20540;-68
2022/05/21 11:52:41;;;;;;;10.73;3.03;;;;;;;;;;4929267;29;20265;-68
2022/05/21 11:55:20;;;;;;;13.85;3.20;;;;;;;;;;4928835;29;20059;-68
2022/05/21 11:57:48;;;;;;;10.18;2.45;;;;;;;;;;4931031;29;20055;-68
2022/05/21 12:00:34;;;;;;;11.82;2.42;;;;;;;;;;4929537;29;20051;-69
2022/05/21 12:03:13;;;;;;;15.80;3.38;;;;;;;;;;4926028;29;20119;-68
2022/05/21 12:05:59;;;;;;;12.55;2.83;;;;;;;;;;4930605;29;20058;-68
2022/05/21 12:08:37;;;;;;;13.70;3.00;;;;;;;;;;4930025;29;20498;-68
2022/05/21 12:11:06;;;;;;;16.08;2.90;;;;;;;;;;4929679;29;20062;-68
2022/05/21 12:13:48;;;;;;;13.15;2.60;;;;;;;;;;4930091;29;20375;-68
2022/05/21 12:16:49;;;;;;;13.23;2.75;;;;;;;;;;4908182;29;20063;-68
2022/05/21 12:19:31;;;;;;;10.73;2.45;;;;;;;;;;4852687;29;20050;-68
2022/05/21 12:22:04;;;;;;;12.98;3.03;;;;;;;;;;4851487;29;20462;-68
2022/05/21 12:24:35;;;;;;;16.35;3.25;;;;;;;;;;4896399;29;20075;-68
2022/05/21 12:27:05;;;;;;;12.43;2.97;;;;;;;;;;4927690;29;20055;-68
2022/05/21 12:29:34;;;;;;;18.98;3.20;;;;;;;;;;4928302;29;20132;-68
2022/05/21 12:32:03;;;;;;;13.38;2.60;;;;;;;;;;4929273;29;20808;-68
2022/05/21 12:34:55;;;;;;;13.50;2.80;;;;;;;;;;4924740;29;20103;-68
2022/05/21 12:37:25;;;;;;;14.27;2.95;;;;;;;;;;4927735;29;20119;-68
2022/05/21 12:40:00;;;;;;;11.50;3.10;;;;;;;;;;4929020;29;20078;-68
2022/05/21 12:42:31;;;;;;;13.70;3.78;;;;;;;;;;4928535;29;20142;-68
2022/05/21 12:44:58;;;;;;;16.33;3.60;;;;;;;;;;4929862;29;20056;-68
2022/05/21 12:47:30;;;;;;;13.30;2.88;;;;;;;;;;4933477;29;20958;-68
2022/05/21 12:49:58;;;;;;;16.52;3.60;;;;;;;;;;4932238;29;20059;-68
2022/05/21 12:52:30;;;;;;;14.13;3.28;;;;;;;;;;4929761;29;20106;-68
2022/05/21 12:55:17;;;;;;;12.00;3.10;;;;;;;;;;4929152;29;20430;-68
2022/05/21 12:57:46;;;;;;;13.93;3.45;;;;;;;;;;4931114;29;20422;-68
2022/05/21 13:00:14;;;;;;;12.63;2.67;;;;;;;;;;4930630;29;20127;-68
2022/05/21 13:02:43;;;;;;;17.60;2.90;;;;;;;;;;4912741;29;20087;-68
2022/05/21 13:05:12;;;;;;;19.15;3.92;;;;;;;;;;4927374;29;20275;-68
2022/05/21 13:07:43;;;;;;;17.15;3.65;;;;;;;;;;4929997;29;20059;-68
2022/05/21 13:10:16;;;;;;;16.20;4.13;;;;;;;;;;4930112;28;20066;-68
2022/05/21 13:12:45;;;;;;;15.43;3.67;;;;;;;;;;4930130;28;20047;-68
2022/05/21 13:15:14;;;;;;;17.48;3.53;;;;;;;;;;4946823;28;20051;-68
2022/05/21 13:17:46;;;;;;;19.00;4.47;;;;;;;;;;4946982;28;20055;-68
2022/05/21 13:20:16;;;;;;;18.70;3.50;;;;;;;;;;4947743;28;20047;-68
2022/05/21 13:22:55;;;;;;;16.90;4.18;;;;;;;;;;4946584;28;20051;-68
2022/05/21 13:25:23;;;;;;;19.23;3.92;;;;;;;;;;4949389;29;20678;-68
2022/05/21 13:27:54;;;;;;;13.25;3.30;;;;;;;;;;4951212;29;20437;-68
2022/05/21 13:30:23;;;;;;;17.30;3.50;;;;;;;;;;4950132;29;20530;-68
2022/05/21 13:32:55;;;;;;;23.02;4.30;;;;;;;;;;4951683;29;20110;-68
2022/05/21 13:35:23;;;;;;;19.73;4.85;;;;;;;;;;4930000;29;20051;-68
2022/05/21 13:37:53;;;;;;;15.27;3.88;;;;;;;;;;4945891;29;20545;-68
2022/05/21 13:40:22;;;;;;;15.45;3.40;;;;;;;;;;4932105;29;20063;-68
2022/05/21 13:42:50;;;;;;;15.10;3.70;;;;;;;;;;4952031;29;20048;-68
2022/05/21 13:45:19;;;;;;;17.13;3.88;;;;;;;;;;4950658;29;20054;-68
2022/05/21 13:47:49;;;;;;;16.13;3.40;;;;;;;;;;4951513;28;20059;-68
2022/05/21 13:50:18;;;;;;;17.85;4.10;;;;;;;;;;4949050;29;20532;-68
2022/05/21 13:52:46;;;;;;;13.93;3.35;;;;;;;;;;4952810;28;20070;-68
2022/05/21 13:55:15;;;;;;;10.93;2.97;;;;;;;;;;4949092;29;20106;-68
2022/05/21 13:57:43;;;;;;;14.57;3.53;;;;;;;;;;4949546;28;20054;-68
2022/05/21 14:00:16;;;;;;;13.73;3.53;;;;;;;;;;4950353;28;20716;-68
2022/05/21 14:02:45;;;;;;;16.55;3.80;;;;;;;;;;4951813;28;20043;-68
2022/05/21 14:05:21;;;;;;;17.83;3.58;;;;;;;;;;4950937;29;22272;-68
2022/05/21 14:07:51;;;;;;;20.45;4.38;;;;;;;;;;4950973;28;20067;-68
2022/05/21 14:10:30;;;;;;;17.88;4.05;;;;;;;;;;4950724;29;20051;-68
2022/05/21 14:12:57;;;;;;;18.65;3.80;;;;;;;;;;4934052;29;20091;-68
2022/05/21 14:15:28;;;;;;;18.27;3.25;;;;;;;;;;4933984;29;20461;-68
2022/05/21 14:17:56;;;;;;;13.25;3.20;;;;;;;;;;4949478;29;20059;-68
2022/05/21 14:20:26;;;;;;;14.68;3.40;;;;;;;;;;4932957;29;20063;-68
2022/05/21 14:22:53;;;;;;;16.45;3.58;;;;;;;;;;4933696;29;20051;-68
2022/05/21 14:25:34;;;;;;;19.60;3.40;;;;;;;;;;4950592;29;20047;-68
2022/05/21 14:28:21;;;;;;;13.20;3.10;;;;;;;;;;4933469;29;20145;-68
2022/05/21 14:30:50;;;;;;;19.08;3.53;;;;;;;;;;4949813;29;20515;-68
2022/05/21 14:33:23;;;;;;;14.73;3.33;;;;;;;;;;4950607;29;20051;-68
2022/05/21 14:35:51;;;;;;;25.10;4.03;;;;;;;;;;4950967;28;20047;-68
2022/05/21 14:38:20;;;;;;;16.77;3.60;;;;;;;;;;4933644;29;20110;-68
2022/05/21 14:40:51;;;;;;;14.32;3.25;;;;;;;;;;4933482;29;20059;-68
2022/05/21 14:43:21;;;;;;;13.38;3.08;;;;;;;;;;4931291;29;20055;-68
2022/05/21 14:45:49;;;;;;;14.60;3.75;;;;;;;;;;4933679;29;20114;-68
2022/05/21 14:48:15;;;;;;;14.98;3.10;;;;;;;;;;4949467;28;20078;-68
2022/05/21 14:53:29;;;;;;;13.63;3.72;;;;;;;;;;4950649;28;20054;-68
2022/05/21 14:55:58;;;;;;;15.10;3.28;;;;;;;;;;4950537;28;20059;-68
2022/05/21 14:58:26;;;;;;;13.18;3.05;;;;;;;;;;4950640;28;20494;-68
2022/05/21 15:00:53;;;;;;;10.23;2.83;;;;;;;;;;4933337;29;20051;-68
2022/05/21 15:03:20;;;;;;;11.85;3.13;;;;;;;;;;4946995;28;20063;-68
2022/05/21 15:05:49;;;;;;;15.13;3.10;;;;;;;;;;4950479;29;20070;-68
2022/05/21 15:08:18;;;;;;;15.68;3.47;;;;;;;;;;4945786;29;20123;-68
2022/05/21 15:10:45;;;;;;;10.52;2.75;;;;;;;;;;4950294;29;20517;-68
2022/05/21 15:13:14;;;;;;;11.57;3.17;;;;;;;;;;4947463;29;20050;-68
2022/05/21 15:15:41;;;;;;;11.40;3.25;;;;;;;;;;4950472;29;20043;-68
2022/05/21 15:18:08;;;;;;;11.63;2.80;;;;;;;;;;4945602;29;20494;-68
2022/05/21 15:20:38;;;;;;;9.88;2.85;;;;;;;;;;4946949;29;20062;-68